sensor_id;sensor_type;location;lat;lon;timestamp;P1;durP1;ratioP1;P2;durP2;ratioP2
40501;SDS011;29631;49.168;9.848;2023-04-24T00:00:04;1.20;;;0.88;;
40501;SDS011;29631;49.168;9.848;2023-04-24T00:02:31;0.60;;;0.60;;
40501;SDS011;29631;49.168;9.848;2023-04-24T00:04:57;0.65;;;0.65;;
40501;SDS011;29631;49.168;9.848;2023-04-24T00:07:27;0.73;;;0.63;;
40501;SDS011;29631;49.168;9.848;2023-04-24T00:09:53;0.50;;;0.50;;
40501;SDS011;29631;49.168;9.848;2023-04-24T00:12:19;0.80;;;0.80;;
40501;SDS011;29631;49.168;9.848;2023-04-24T00:14:45;0.70;;;0.70;;
40501;SDS011;29631;49.168;9.848;2023-04-24T00:17:11;0.90;;;0.90;;
40501;SDS011;29631;49.168;9.848;2023-04-24T00:19:36;0.80;;;0.80;;
40501;SDS011;29631;49.168;9.848;2023-04-24T00:22:02;0.90;;;0.90;;
40501;SDS011;29631;49.168;9.848;2023-04-24T00:24:28;0.40;;;0.40;;
40501;SDS011;29631;49.168;9.848;2023-04-24T00:26:54;0.60;;;0.60;;
40501;SDS011;29631;49.168;9.848;2023-04-24T00:29:20;0.63;;;0.63;;
40501;SDS011;29631;49.168;9.848;2023-04-24T00:31:46;0.73;;;0.73;;
40501;SDS011;29631;49.168;9.848;2023-04-24T00:34:11;0.70;;;0.70;;
40501;SDS011;29631;49.168;9.848;2023-04-24T00:36:37;0.80;;;0.80;;
40501;SDS011;29631;49.168;9.848;2023-04-24T00:39:03;1.33;;;0.68;;
40501;SDS011;29631;49.168;9.848;2023-04-24T00:41:29;0.80;;;0.80;;
40501;SDS011;29631;49.168;9.848;2023-04-24T00:43:55;0.90;;;0.90;;
40501;SDS011;29631;49.168;9.848;2023-04-24T00:46:21;0.68;;;0.68;;
40501;SDS011;29631;49.168;9.848;2023-04-24T00:48:47;0.70;;;0.70;;
40501;SDS011;29631;49.168;9.848;2023-04-24T00:51:12;1.20;;;0.60;;
40501;SDS011;29631;49.168;9.848;2023-04-24T00:53:38;0.80;;;0.80;;
40501;SDS011;29631;49.168;9.848;2023-04-24T00:56:04;0.57;;;0.57;;
40501;SDS011;29631;49.168;9.848;2023-04-24T00:58:30;1.20;;;1.08;;
40501;SDS011;29631;49.168;9.848;2023-04-24T01:00:56;1.73;;;0.70;;
40501;SDS011;29631;49.168;9.848;2023-04-24T01:03:24;0.75;;;0.75;;
40501;SDS011;29631;49.168;9.848;2023-04-24T01:05:54;0.60;;;0.60;;
40501;SDS011;29631;49.168;9.848;2023-04-24T01:08:20;0.80;;;0.80;;
40501;SDS011;29631;49.168;9.848;2023-04-24T01:10:49;0.95;;;0.85;;
40501;SDS011;29631;49.168;9.848;2023-04-24T01:13:17;1.65;;;0.50;;
40501;SDS011;29631;49.168;9.848;2023-04-24T01:15:44;1.17;;;0.80;;
40501;SDS011;29631;49.168;9.848;2023-04-24T01:18:11;0.77;;;0.77;;
40501;SDS011;29631;49.168;9.848;2023-04-24T01:20:38;0.88;;;0.88;;
40501;SDS011;29631;49.168;9.848;2023-04-24T01:23:07;0.95;;;0.80;;
40501;SDS011;29631;49.168;9.848;2023-04-24T01:25:33;0.85;;;0.80;;
40501;SDS011;29631;49.168;9.848;2023-04-24T01:27:59;0.80;;;0.80;;
40501;SDS011;29631;49.168;9.848;2023-04-24T01:30:25;1.80;;;0.80;;
40501;SDS011;29631;49.168;9.848;2023-04-24T01:32:52;1.15;;;1.08;;
40501;SDS011;29631;49.168;9.848;2023-04-24T01:35:18;0.98;;;0.88;;
40501;SDS011;29631;49.168;9.848;2023-04-24T01:37:44;0.80;;;0.80;;
40501;SDS011;29631;49.168;9.848;2023-04-24T01:40:10;1.05;;;1.05;;
40501;SDS011;29631;49.168;9.848;2023-04-24T01:42:36;0.82;;;0.82;;
40501;SDS011;29631;49.168;9.848;2023-04-24T01:45:03;1.00;;;1.00;;
40501;SDS011;29631;49.168;9.848;2023-04-24T01:47:31;0.90;;;0.82;;
40501;SDS011;29631;49.168;9.848;2023-04-24T01:49:57;0.80;;;0.80;;
40501;SDS011;29631;49.168;9.848;2023-04-24T01:52:23;0.60;;;0.60;;
40501;SDS011;29631;49.168;9.848;2023-04-24T01:54:49;0.82;;;0.82;;
40501;SDS011;29631;49.168;9.848;2023-04-24T01:57:15;0.82;;;0.82;;
40501;SDS011;29631;49.168;9.848;2023-04-24T01:59:41;0.60;;;0.60;;
40501;SDS011;29631;49.168;9.848;2023-04-24T02:02:07;2.55;;;0.90;;
40501;SDS011;29631;49.168;9.848;2023-04-24T02:04:33;0.80;;;0.80;;
40501;SDS011;29631;49.168;9.848;2023-04-24T02:06:58;1.17;;;0.63;;
40501;SDS011;29631;49.168;9.848;2023-04-24T02:09:24;0.65;;;0.65;;
40501;SDS011;29631;49.168;9.848;2023-04-24T02:11:50;0.95;;;0.75;;
40501;SDS011;29631;49.168;9.848;2023-04-24T02:14:16;0.80;;;0.80;;
40501;SDS011;29631;49.168;9.848;2023-04-24T02:16:42;1.20;;;0.80;;
40501;SDS011;29631;49.168;9.848;2023-04-24T02:19:08;0.88;;;0.88;;
40501;SDS011;29631;49.168;9.848;2023-04-24T02:21:34;0.85;;;0.80;;
40501;SDS011;29631;49.168;9.848;2023-04-24T02:24:00;0.80;;;0.80;;
40501;SDS011;29631;49.168;9.848;2023-04-24T02:26:26;1.02;;;0.70;;
40501;SDS011;29631;49.168;9.848;2023-04-24T02:28:52;0.82;;;0.70;;
40501;SDS011;29631;49.168;9.848;2023-04-24T02:31:18;0.80;;;0.80;;
40501;SDS011;29631;49.168;9.848;2023-04-24T02:33:43;1.67;;;0.80;;
40501;SDS011;29631;49.168;9.848;2023-04-24T02:36:09;0.65;;;0.65;;
40501;SDS011;29631;49.168;9.848;2023-04-24T02:38:35;0.70;;;0.70;;
40501;SDS011;29631;49.168;9.848;2023-04-24T02:41:01;1.38;;;0.85;;
40501;SDS011;29631;49.168;9.848;2023-04-24T02:43:29;0.68;;;0.68;;
40501;SDS011;29631;49.168;9.848;2023-04-24T02:45:54;0.70;;;0.70;;
40501;SDS011;29631;49.168;9.848;2023-04-24T02:48:20;0.60;;;0.60;;
40501;SDS011;29631;49.168;9.848;2023-04-24T02:50:46;0.80;;;0.80;;
40501;SDS011;29631;49.168;9.848;2023-04-24T02:53:12;1.35;;;0.60;;
40501;SDS011;29631;49.168;9.848;2023-04-24T02:55:38;1.52;;;0.80;;
40501;SDS011;29631;49.168;9.848;2023-04-24T02:58:03;0.50;;;0.50;;
40501;SDS011;29631;49.168;9.848;2023-04-24T03:00:30;0.80;;;0.80;;
40501;SDS011;29631;49.168;9.848;2023-04-24T03:02:56;0.90;;;0.90;;
40501;SDS011;29631;49.168;9.848;2023-04-24T03:05:22;0.60;;;0.60;;
40501;SDS011;29631;49.168;9.848;2023-04-24T03:07:48;0.90;;;0.90;;
40501;SDS011;29631;49.168;9.848;2023-04-24T03:10:13;1.10;;;0.80;;
40501;SDS011;29631;49.168;9.848;2023-04-24T03:12:39;1.75;;;0.90;;
40501;SDS011;29631;49.168;9.848;2023-04-24T03:15:05;1.45;;;0.70;;
40501;SDS011;29631;49.168;9.848;2023-04-24T03:17:31;0.60;;;0.60;;
40501;SDS011;29631;49.168;9.848;2023-04-24T03:19:57;0.98;;;0.88;;
40501;SDS011;29631;49.168;9.848;2023-04-24T03:22:23;1.17;;;0.70;;
40501;SDS011;29631;49.168;9.848;2023-04-24T03:24:49;1.02;;;1.00;;
40501;SDS011;29631;49.168;9.848;2023-04-24T03:27:14;0.90;;;0.90;;
40501;SDS011;29631;49.168;9.848;2023-04-24T03:29:40;0.80;;;0.80;;
40501;SDS011;29631;49.168;9.848;2023-04-24T03:32:06;0.80;;;0.80;;
40501;SDS011;29631;49.168;9.848;2023-04-24T03:34:32;0.88;;;0.88;;
40501;SDS011;29631;49.168;9.848;2023-04-24T03:36:57;0.73;;;0.70;;
40501;SDS011;29631;49.168;9.848;2023-04-24T03:39:23;0.73;;;0.73;;
40501;SDS011;29631;49.168;9.848;2023-04-24T03:41:50;0.80;;;0.80;;
40501;SDS011;29631;49.168;9.848;2023-04-24T03:44:15;0.70;;;0.68;;
40501;SDS011;29631;49.168;9.848;2023-04-24T03:46:41;1.38;;;0.80;;
40501;SDS011;29631;49.168;9.848;2023-04-24T03:49:07;0.80;;;0.80;;
40501;SDS011;29631;49.168;9.848;2023-04-24T03:51:32;0.80;;;0.80;;
40501;SDS011;29631;49.168;9.848;2023-04-24T03:53:58;0.60;;;0.60;;
40501;SDS011;29631;49.168;9.848;2023-04-24T03:56:24;0.65;;;0.65;;
40501;SDS011;29631;49.168;9.848;2023-04-24T03:58:50;1.02;;;0.93;;
40501;SDS011;29631;49.168;9.848;2023-04-24T04:01:15;0.82;;;0.82;;
40501;SDS011;29631;49.168;9.848;2023-04-24T04:03:41;0.88;;;0.88;;
40501;SDS011;29631;49.168;9.848;2023-04-24T04:06:07;0.80;;;0.70;;
40501;SDS011;29631;49.168;9.848;2023-04-24T04:08:32;0.60;;;0.60;;
40501;SDS011;29631;49.168;9.848;2023-04-24T04:10:58;3.50;;;0.93;;
40501;SDS011;29631;49.168;9.848;2023-04-24T04:13:24;0.68;;;0.68;;
40501;SDS011;29631;49.168;9.848;2023-04-24T04:15:49;0.93;;;0.60;;
40501;SDS011;29631;49.168;9.848;2023-04-24T04:18:15;0.82;;;0.70;;
40501;SDS011;29631;49.168;9.848;2023-04-24T04:20:41;0.80;;;0.80;;
40501;SDS011;29631;49.168;9.848;2023-04-24T04:23:07;1.13;;;0.80;;
40501;SDS011;29631;49.168;9.848;2023-04-24T04:25:32;0.70;;;0.70;;
40501;SDS011;29631;49.168;9.848;2023-04-24T04:27:59;0.80;;;0.80;;
40501;SDS011;29631;49.168;9.848;2023-04-24T04:30:25;0.85;;;0.85;;
40501;SDS011;29631;49.168;9.848;2023-04-24T04:32:51;0.70;;;0.70;;
40501;SDS011;29631;49.168;9.848;2023-04-24T04:35:16;0.60;;;0.55;;
40501;SDS011;29631;49.168;9.848;2023-04-24T04:37:42;0.80;;;0.80;;
40501;SDS011;29631;49.168;9.848;2023-04-24T04:40:08;0.77;;;0.77;;
40501;SDS011;29631;49.168;9.848;2023-04-24T04:42:37;1.13;;;0.70;;
40501;SDS011;29631;49.168;9.848;2023-04-24T04:45:09;0.68;;;0.68;;
40501;SDS011;29631;49.168;9.848;2023-04-24T04:47:36;0.80;;;0.80;;
40501;SDS011;29631;49.168;9.848;2023-04-24T04:50:02;0.85;;;0.82;;
40501;SDS011;29631;49.168;9.848;2023-04-24T04:52:28;0.73;;;0.73;;
40501;SDS011;29631;49.168;9.848;2023-04-24T04:54:54;0.70;;;0.70;;
40501;SDS011;29631;49.168;9.848;2023-04-24T04:57:20;0.70;;;0.70;;
40501;SDS011;29631;49.168;9.848;2023-04-24T04:59:46;0.98;;;0.90;;
40501;SDS011;29631;49.168;9.848;2023-04-24T05:02:12;0.68;;;0.68;;
40501;SDS011;29631;49.168;9.848;2023-04-24T05:04:38;0.73;;;0.60;;
40501;SDS011;29631;49.168;9.848;2023-04-24T05:07:03;0.80;;;0.80;;
40501;SDS011;29631;49.168;9.848;2023-04-24T05:09:29;0.77;;;0.77;;
40501;SDS011;29631;49.168;9.848;2023-04-24T05:11:55;2.13;;;0.70;;
40501;SDS011;29631;49.168;9.848;2023-04-24T05:14:21;0.73;;;0.73;;
40501;SDS011;29631;49.168;9.848;2023-04-24T05:16:47;1.30;;;0.80;;
40501;SDS011;29631;49.168;9.848;2023-04-24T05:19:13;0.70;;;0.70;;
40501;SDS011;29631;49.168;9.848;2023-04-24T05:21:39;0.57;;;0.57;;
40501;SDS011;29631;49.168;9.848;2023-04-24T05:24:06;0.70;;;0.70;;
40501;SDS011;29631;49.168;9.848;2023-04-24T05:26:32;0.70;;;0.70;;
40501;SDS011;29631;49.168;9.848;2023-04-24T05:28:57;0.70;;;0.70;;
40501;SDS011;29631;49.168;9.848;2023-04-24T05:31:23;0.57;;;0.50;;
40501;SDS011;29631;49.168;9.848;2023-04-24T05:33:50;0.63;;;0.63;;
40501;SDS011;29631;49.168;9.848;2023-04-24T05:36:15;0.70;;;0.70;;
40501;SDS011;29631;49.168;9.848;2023-04-24T05:38:41;0.60;;;0.60;;
40501;SDS011;29631;49.168;9.848;2023-04-24T05:41:07;0.70;;;0.70;;
40501;SDS011;29631;49.168;9.848;2023-04-24T05:43:33;0.70;;;0.70;;
40501;SDS011;29631;49.168;9.848;2023-04-24T05:45:58;0.68;;;0.50;;
40501;SDS011;29631;49.168;9.848;2023-04-24T05:48:24;0.80;;;0.80;;
40501;SDS011;29631;49.168;9.848;2023-04-24T05:50:50;0.60;;;0.60;;
40501;SDS011;29631;49.168;9.848;2023-04-24T05:53:17;0.73;;;0.73;;
40501;SDS011;29631;49.168;9.848;2023-04-24T05:55:43;0.63;;;0.63;;
40501;SDS011;29631;49.168;9.848;2023-04-24T05:58:10;0.82;;;0.82;;
40501;SDS011;29631;49.168;9.848;2023-04-24T06:00:36;0.95;;;0.95;;
40501;SDS011;29631;49.168;9.848;2023-04-24T06:03:04;0.75;;;0.75;;
40501;SDS011;29631;49.168;9.848;2023-04-24T06:05:30;1.70;;;0.90;;
40501;SDS011;29631;49.168;9.848;2023-04-24T06:07:56;0.70;;;0.70;;
40501;SDS011;29631;49.168;9.848;2023-04-24T06:10:22;3.80;;;1.10;;
40501;SDS011;29631;49.168;9.848;2023-04-24T06:12:48;0.90;;;0.90;;
40501;SDS011;29631;49.168;9.848;2023-04-24T06:15:14;0.82;;;0.82;;
40501;SDS011;29631;49.168;9.848;2023-04-24T06:17:40;1.23;;;1.15;;
40501;SDS011;29631;49.168;9.848;2023-04-24T06:20:06;0.85;;;0.85;;
40501;SDS011;29631;49.168;9.848;2023-04-24T06:22:33;1.50;;;1.40;;
40501;SDS011;29631;49.168;9.848;2023-04-24T06:24:59;1.17;;;1.17;;
40501;SDS011;29631;49.168;9.848;2023-04-24T06:27:25;1.10;;;1.10;;
40501;SDS011;29631;49.168;9.848;2023-04-24T06:29:51;1.92;;;1.27;;
40501;SDS011;29631;49.168;9.848;2023-04-24T06:32:20;3.05;;;1.50;;
40501;SDS011;29631;49.168;9.848;2023-04-24T06:34:48;1.67;;;1.58;;
40501;SDS011;29631;49.168;9.848;2023-04-24T06:37:14;1.55;;;1.50;;
40501;SDS011;29631;49.168;9.848;2023-04-24T06:39:41;1.38;;;1.38;;
40501;SDS011;29631;49.168;9.848;2023-04-24T06:42:06;2.05;;;1.50;;
40501;SDS011;29631;49.168;9.848;2023-04-24T06:44:34;1.98;;;1.55;;
40501;SDS011;29631;49.168;9.848;2023-04-24T06:47:05;1.27;;;1.27;;
40501;SDS011;29631;49.168;9.848;2023-04-24T06:49:34;1.40;;;1.40;;
40501;SDS011;29631;49.168;9.848;2023-04-24T06:52:00;1.20;;;1.20;;
40501;SDS011;29631;49.168;9.848;2023-04-24T06:54:26;1.40;;;1.38;;
40501;SDS011;29631;49.168;9.848;2023-04-24T06:56:52;1.77;;;1.67;;
40501;SDS011;29631;49.168;9.848;2023-04-24T06:59:18;1.40;;;1.40;;
40501;SDS011;29631;49.168;9.848;2023-04-24T07:01:44;1.40;;;1.40;;
40501;SDS011;29631;49.168;9.848;2023-04-24T07:04:10;1.33;;;1.33;;
40501;SDS011;29631;49.168;9.848;2023-04-24T07:06:38;1.55;;;1.45;;
40501;SDS011;29631;49.168;9.848;2023-04-24T07:09:04;1.77;;;1.15;;
40501;SDS011;29631;49.168;9.848;2023-04-24T07:11:30;2.13;;;1.80;;
40501;SDS011;29631;49.168;9.848;2023-04-24T07:13:56;1.70;;;1.60;;
40501;SDS011;29631;49.168;9.848;2023-04-24T07:16:22;1.40;;;1.40;;
40501;SDS011;29631;49.168;9.848;2023-04-24T07:18:48;1.42;;;1.38;;
40501;SDS011;29631;49.168;9.848;2023-04-24T07:21:13;1.55;;;1.55;;
40501;SDS011;29631;49.168;9.848;2023-04-24T07:23:39;1.50;;;1.40;;
40501;SDS011;29631;49.168;9.848;2023-04-24T07:26:06;2.38;;;1.65;;
40501;SDS011;29631;49.168;9.848;2023-04-24T07:28:32;1.15;;;1.15;;
40501;SDS011;29631;49.168;9.848;2023-04-24T07:30:57;1.85;;;1.63;;
40501;SDS011;29631;49.168;9.848;2023-04-24T07:33:24;1.45;;;1.40;;
40501;SDS011;29631;49.168;9.848;2023-04-24T07:35:51;1.20;;;1.15;;
40501;SDS011;29631;49.168;9.848;2023-04-24T07:38:17;1.50;;;1.50;;
40501;SDS011;29631;49.168;9.848;2023-04-24T07:40:47;1.85;;;1.75;;
40501;SDS011;29631;49.168;9.848;2023-04-24T07:43:13;1.20;;;1.20;;
40501;SDS011;29631;49.168;9.848;2023-04-24T07:45:39;1.50;;;1.40;;
40501;SDS011;29631;49.168;9.848;2023-04-24T07:48:05;1.77;;;1.25;;
40501;SDS011;29631;49.168;9.848;2023-04-24T07:50:31;1.70;;;1.60;;
40501;SDS011;29631;49.168;9.848;2023-04-24T07:52:57;1.60;;;1.50;;
40501;SDS011;29631;49.168;9.848;2023-04-24T07:55:23;1.58;;;1.45;;
40501;SDS011;29631;49.168;9.848;2023-04-24T07:57:49;2.00;;;1.58;;
40501;SDS011;29631;49.168;9.848;2023-04-24T08:00:15;1.15;;;1.15;;
40501;SDS011;29631;49.168;9.848;2023-04-24T08:02:41;1.23;;;1.13;;
40501;SDS011;29631;49.168;9.848;2023-04-24T08:05:07;1.60;;;1.50;;
40501;SDS011;29631;49.168;9.848;2023-04-24T08:07:33;1.42;;;1.42;;
40501;SDS011;29631;49.168;9.848;2023-04-24T08:10:00;1.33;;;1.33;;
40501;SDS011;29631;49.168;9.848;2023-04-24T08:12:27;2.45;;;1.52;;
40501;SDS011;29631;49.168;9.848;2023-04-24T08:14:54;1.45;;;1.40;;
40501;SDS011;29631;49.168;9.848;2023-04-24T08:17:19;1.20;;;1.08;;
40501;SDS011;29631;49.168;9.848;2023-04-24T08:19:45;2.45;;;1.30;;
40501;SDS011;29631;49.168;9.848;2023-04-24T08:22:13;3.15;;;1.30;;
40501;SDS011;29631;49.168;9.848;2023-04-24T08:24:40;1.40;;;1.40;;
40501;SDS011;29631;49.168;9.848;2023-04-24T08:27:06;1.20;;;1.20;;
40501;SDS011;29631;49.168;9.848;2023-04-24T08:29:31;1.00;;;1.00;;
40501;SDS011;29631;49.168;9.848;2023-04-24T08:31:57;1.55;;;1.27;;
40501;SDS011;29631;49.168;9.848;2023-04-24T08:34:23;1.10;;;1.10;;
40501;SDS011;29631;49.168;9.848;2023-04-24T08:36:49;1.20;;;1.20;;
40501;SDS011;29631;49.168;9.848;2023-04-24T08:39:15;0.85;;;0.85;;
40501;SDS011;29631;49.168;9.848;2023-04-24T08:41:42;1.30;;;1.20;;
40501;SDS011;29631;49.168;9.848;2023-04-24T08:44:08;1.00;;;1.00;;
40501;SDS011;29631;49.168;9.848;2023-04-24T08:46:35;1.30;;;1.30;;
40501;SDS011;29631;49.168;9.848;2023-04-24T08:49:02;1.50;;;1.40;;
40501;SDS011;29631;49.168;9.848;2023-04-24T08:51:28;1.38;;;1.30;;
40501;SDS011;29631;49.168;9.848;2023-04-24T08:53:56;1.10;;;1.10;;
40501;SDS011;29631;49.168;9.848;2023-04-24T08:56:22;0.93;;;0.93;;
40501;SDS011;29631;49.168;9.848;2023-04-24T08:58:53;0.95;;;0.95;;
40501;SDS011;29631;49.168;9.848;2023-04-24T09:01:19;0.75;;;0.75;;
40501;SDS011;29631;49.168;9.848;2023-04-24T09:03:49;1.00;;;1.00;;
40501;SDS011;29631;49.168;9.848;2023-04-24T09:06:16;0.90;;;0.90;;
40501;SDS011;29631;49.168;9.848;2023-04-24T09:08:44;1.08;;;1.00;;
40501;SDS011;29631;49.168;9.848;2023-04-24T09:11:12;4.72;;;3.58;;
40501;SDS011;29631;49.168;9.848;2023-04-24T09:13:37;1.50;;;1.40;;
40501;SDS011;29631;49.168;9.848;2023-04-24T09:16:04;1.42;;;1.20;;
40501;SDS011;29631;49.168;9.848;2023-04-24T09:18:30;0.93;;;0.93;;
40501;SDS011;29631;49.168;9.848;2023-04-24T09:20:59;0.88;;;0.85;;
40501;SDS011;29631;49.168;9.848;2023-04-24T09:23:31;1.08;;;0.70;;
40501;SDS011;29631;49.168;9.848;2023-04-24T09:25:58;1.10;;;1.10;;
40501;SDS011;29631;49.168;9.848;2023-04-24T09:28:27;1.98;;;0.80;;
40501;SDS011;29631;49.168;9.848;2023-04-24T09:31:12;0.80;;;0.80;;
40501;SDS011;29631;49.168;9.848;2023-04-24T09:33:53;0.80;;;0.80;;
40501;SDS011;29631;49.168;9.848;2023-04-24T09:36:33;1.00;;;1.00;;
40501;SDS011;29631;49.168;9.848;2023-04-24T09:39:06;12.48;;;5.18;;
40501;SDS011;29631;49.168;9.848;2023-04-24T09:41:49;32.88;;;13.73;;
40501;SDS011;29631;49.168;9.848;2023-04-24T09:44:24;32.90;;;17.95;;
40501;SDS011;29631;49.168;9.848;2023-04-24T09:46:55;35.90;;;19.95;;
40501;SDS011;29631;49.168;9.848;2023-04-24T09:49:27;31.80;;;16.65;;
40501;SDS011;29631;49.168;9.848;2023-04-24T09:52:02;17.98;;;10.88;;
40501;SDS011;29631;49.168;9.848;2023-04-24T09:54:32;13.20;;;10.88;;
40501;SDS011;29631;49.168;9.848;2023-04-24T09:56:59;24.63;;;20.52;;
40501;SDS011;29631;49.168;9.848;2023-04-24T09:59:27;8.93;;;7.90;;
40501;SDS011;29631;49.168;9.848;2023-04-24T10:01:53;4.22;;;3.83;;
40501;SDS011;29631;49.168;9.848;2023-04-24T10:04:19;2.50;;;2.30;;
40501;SDS011;29631;49.168;9.848;2023-04-24T10:06:47;1.67;;;1.60;;
40501;SDS011;29631;49.168;9.848;2023-04-24T10:09:14;0.80;;;0.80;;
40501;SDS011;29631;49.168;9.848;2023-04-24T10:11:44;1.50;;;1.40;;
40501;SDS011;29631;49.168;9.848;2023-04-24T10:14:14;1.60;;;1.50;;
40501;SDS011;29631;49.168;9.848;2023-04-24T10:16:53;1.10;;;1.00;;
40501;SDS011;29631;49.168;9.848;2023-04-24T10:19:21;1.38;;;1.10;;
40501;SDS011;29631;49.168;9.848;2023-04-24T10:21:51;1.20;;;1.20;;
40501;SDS011;29631;49.168;9.848;2023-04-24T10:24:17;0.98;;;0.98;;
40501;SDS011;29631;49.168;9.848;2023-04-24T10:26:46;0.98;;;0.98;;
40501;SDS011;29631;49.168;9.848;2023-04-24T10:29:14;1.25;;;1.02;;
40501;SDS011;29631;49.168;9.848;2023-04-24T10:31:44;0.82;;;0.82;;
40501;SDS011;29631;49.168;9.848;2023-04-24T10:34:14;1.00;;;0.88;;
40501;SDS011;29631;49.168;9.848;2023-04-24T10:36:43;1.25;;;0.70;;
40501;SDS011;29631;49.168;9.848;2023-04-24T10:39:19;0.80;;;0.80;;
40501;SDS011;29631;49.168;9.848;2023-04-24T10:41:48;0.80;;;0.80;;
40501;SDS011;29631;49.168;9.848;2023-04-24T10:44:14;0.90;;;0.90;;
40501;SDS011;29631;49.168;9.848;2023-04-24T10:46:45;0.90;;;0.90;;
40501;SDS011;29631;49.168;9.848;2023-04-24T10:49:14;1.35;;;1.10;;
40501;SDS011;29631;49.168;9.848;2023-04-24T10:59:47;1.33;;;1.23;;
40501;SDS011;29631;49.168;9.848;2023-04-24T11:02:37;1.42;;;1.33;;
40501;SDS011;29631;49.168;9.848;2023-04-24T11:05:05;0.90;;;0.90;;
40501;SDS011;29631;49.168;9.848;2023-04-24T11:10:39;1.38;;;1.27;;
40501;SDS011;29631;49.168;9.848;2023-04-24T11:19:25;1.27;;;1.27;;
40501;SDS011;29631;49.168;9.848;2023-04-24T11:21:54;1.33;;;1.25;;
40501;SDS011;29631;49.168;9.848;2023-04-24T11:24:37;1.33;;;1.33;;
40501;SDS011;29631;49.168;9.848;2023-04-24T11:27:06;1.20;;;1.20;;
40501;SDS011;29631;49.168;9.848;2023-04-24T11:29:59;1.48;;;1.20;;
40501;SDS011;29631;49.168;9.848;2023-04-24T11:32:34;1.50;;;1.50;;
40501;SDS011;29631;49.168;9.848;2023-04-24T11:37:44;1.67;;;1.58;;
40501;SDS011;29631;49.168;9.848;2023-04-24T11:40:14;1.88;;;1.77;;
40501;SDS011;29631;49.168;9.848;2023-04-24T11:42:42;2.10;;;2.00;;
40501;SDS011;29631;49.168;9.848;2023-04-24T11:45:16;2.85;;;2.65;;
40501;SDS011;29631;49.168;9.848;2023-04-24T11:48:02;3.90;;;3.55;;
40501;SDS011;29631;49.168;9.848;2023-04-24T11:50:28;2.33;;;2.20;;
40501;SDS011;29631;49.168;9.848;2023-04-24T11:52:54;2.10;;;2.00;;
40501;SDS011;29631;49.168;9.848;2023-04-24T11:57:47;1.80;;;1.70;;
40501;SDS011;29631;49.168;9.848;2023-04-24T12:02:45;1.70;;;1.60;;
40501;SDS011;29631;49.168;9.848;2023-04-24T12:05:21;1.33;;;1.33;;
40501;SDS011;29631;49.168;9.848;2023-04-24T12:07:49;1.27;;;1.17;;
40501;SDS011;29631;49.168;9.848;2023-04-24T12:10:19;1.40;;;1.40;;
40501;SDS011;29631;49.168;9.848;2023-04-24T12:12:46;1.60;;;1.50;;
40501;SDS011;29631;49.168;9.848;2023-04-24T12:15:15;1.45;;;1.45;;
40501;SDS011;29631;49.168;9.848;2023-04-24T12:17:42;1.42;;;1.30;;
40501;SDS011;29631;49.168;9.848;2023-04-24T12:20:08;1.58;;;1.58;;
40501;SDS011;29631;49.168;9.848;2023-04-24T12:22:44;1.98;;;1.40;;
40501;SDS011;29631;49.168;9.848;2023-04-24T12:25:19;1.23;;;1.20;;
40501;SDS011;29631;49.168;9.848;2023-04-24T12:27:50;1.20;;;1.20;;
40501;SDS011;29631;49.168;9.848;2023-04-24T12:30:43;1.50;;;1.50;;
40501;SDS011;29631;49.168;9.848;2023-04-24T12:33:18;4.00;;;1.60;;
40501;SDS011;29631;49.168;9.848;2023-04-24T12:35:45;1.67;;;1.67;;
40501;SDS011;29631;49.168;9.848;2023-04-24T12:38:13;1.80;;;1.70;;
40501;SDS011;29631;49.168;9.848;2023-04-24T12:40:41;1.80;;;1.70;;
40501;SDS011;29631;49.168;9.848;2023-04-24T12:43:15;1.45;;;1.20;;
40501;SDS011;29631;49.168;9.848;2023-04-24T12:45:45;2.08;;;1.80;;
40501;SDS011;29631;49.168;9.848;2023-04-24T12:48:13;1.77;;;1.67;;
40501;SDS011;29631;49.168;9.848;2023-04-24T12:50:39;1.65;;;1.65;;
40501;SDS011;29631;49.168;9.848;2023-04-24T12:53:06;2.08;;;1.98;;
40501;SDS011;29631;49.168;9.848;2023-04-24T12:55:33;1.80;;;1.70;;
40501;SDS011;29631;49.168;9.848;2023-04-24T12:58:00;2.40;;;1.60;;
40501;SDS011;29631;49.168;9.848;2023-04-24T13:00:26;1.63;;;1.52;;
40501;SDS011;29631;49.168;9.848;2023-04-24T13:02:52;1.70;;;1.60;;
40501;SDS011;29631;49.168;9.848;2023-04-24T13:05:18;1.75;;;1.75;;
40501;SDS011;29631;49.168;9.848;2023-04-24T13:07:44;1.27;;;1.27;;
40501;SDS011;29631;49.168;9.848;2023-04-24T13:10:09;1.70;;;1.60;;
40501;SDS011;29631;49.168;9.848;2023-04-24T13:12:35;1.27;;;1.23;;
40501;SDS011;29631;49.168;9.848;2023-04-24T13:15:01;2.10;;;1.30;;
40501;SDS011;29631;49.168;9.848;2023-04-24T13:17:28;1.02;;;1.02;;
40501;SDS011;29631;49.168;9.848;2023-04-24T13:19:54;1.30;;;1.30;;
40501;SDS011;29631;49.168;9.848;2023-04-24T13:22:20;1.45;;;1.35;;
40501;SDS011;29631;49.168;9.848;2023-04-24T13:24:46;1.30;;;1.30;;
40501;SDS011;29631;49.168;9.848;2023-04-24T13:27:13;1.42;;;1.33;;
40501;SDS011;29631;49.168;9.848;2023-04-24T13:29:40;1.52;;;1.52;;
40501;SDS011;29631;49.168;9.848;2023-04-24T13:32:07;1.60;;;1.55;;
40501;SDS011;29631;49.168;9.848;2023-04-24T13:34:33;1.63;;;1.45;;
40501;SDS011;29631;49.168;9.848;2023-04-24T13:37:00;1.58;;;1.48;;
40501;SDS011;29631;49.168;9.848;2023-04-24T13:39:28;2.65;;;1.33;;
40501;SDS011;29631;49.168;9.848;2023-04-24T13:41:54;1.90;;;1.80;;
40501;SDS011;29631;49.168;9.848;2023-04-24T13:44:20;1.55;;;1.55;;
40501;SDS011;29631;49.168;9.848;2023-04-24T13:46:48;1.85;;;1.75;;
40501;SDS011;29631;49.168;9.848;2023-04-24T13:49:18;1.40;;;1.40;;
40501;SDS011;29631;49.168;9.848;2023-04-24T13:51:45;1.40;;;1.40;;
40501;SDS011;29631;49.168;9.848;2023-04-24T13:54:11;3.30;;;3.00;;
40501;SDS011;29631;49.168;9.848;2023-04-24T13:56:37;2.33;;;2.10;;
40501;SDS011;29631;49.168;9.848;2023-04-24T13:59:04;2.33;;;2.08;;
40501;SDS011;29631;49.168;9.848;2023-04-24T14:01:30;3.13;;;2.20;;
40501;SDS011;29631;49.168;9.848;2023-04-24T14:03:56;2.67;;;2.00;;
40501;SDS011;29631;49.168;9.848;2023-04-24T14:06:22;1.90;;;1.80;;
40501;SDS011;29631;49.168;9.848;2023-04-24T14:08:48;2.00;;;1.90;;
40501;SDS011;29631;49.168;9.848;2023-04-24T14:11:15;1.95;;;1.85;;
40501;SDS011;29631;49.168;9.848;2023-04-24T14:13:42;1.30;;;1.30;;
40501;SDS011;29631;49.168;9.848;2023-04-24T14:16:09;1.27;;;1.27;;
40501;SDS011;29631;49.168;9.848;2023-04-24T14:18:35;1.58;;;1.58;;
40501;SDS011;29631;49.168;9.848;2023-04-24T14:21:01;1.70;;;1.60;;
40501;SDS011;29631;49.168;9.848;2023-04-24T14:23:28;1.85;;;1.75;;
40501;SDS011;29631;49.168;9.848;2023-04-24T14:25:54;1.90;;;1.80;;
40501;SDS011;29631;49.168;9.848;2023-04-24T14:28:20;1.52;;;1.50;;
40501;SDS011;29631;49.168;9.848;2023-04-24T14:30:46;1.35;;;1.35;;
40501;SDS011;29631;49.168;9.848;2023-04-24T14:33:13;1.60;;;1.52;;
40501;SDS011;29631;49.168;9.848;2023-04-24T14:35:39;1.58;;;1.48;;
40501;SDS011;29631;49.168;9.848;2023-04-24T14:38:09;1.60;;;1.60;;
40501;SDS011;29631;49.168;9.848;2023-04-24T14:40:35;1.67;;;1.58;;
40501;SDS011;29631;49.168;9.848;2023-04-24T14:43:01;1.83;;;1.73;;
40501;SDS011;29631;49.168;9.848;2023-04-24T14:45:27;1.95;;;1.85;;
40501;SDS011;29631;49.168;9.848;2023-04-24T14:47:53;1.63;;;1.58;;
40501;SDS011;29631;49.168;9.848;2023-04-24T14:50:20;1.70;;;1.63;;
40501;SDS011;29631;49.168;9.848;2023-04-24T14:52:45;1.88;;;1.70;;
40501;SDS011;29631;49.168;9.848;2023-04-24T14:55:11;1.40;;;1.40;;
40501;SDS011;29631;49.168;9.848;2023-04-24T14:57:38;1.42;;;1.40;;
40501;SDS011;29631;49.168;9.848;2023-04-24T15:00:04;1.33;;;1.33;;
40501;SDS011;29631;49.168;9.848;2023-04-24T15:02:33;2.15;;;1.65;;
40501;SDS011;29631;49.168;9.848;2023-04-24T15:05:01;1.90;;;1.80;;
40501;SDS011;29631;49.168;9.848;2023-04-24T15:07:27;1.70;;;1.70;;
40501;SDS011;29631;49.168;9.848;2023-04-24T15:09:54;1.98;;;1.80;;
40501;SDS011;29631;49.168;9.848;2023-04-24T15:12:21;1.55;;;1.45;;